createdAt,value
2017-07-22T00:00:13.825Z,99.99
2017-07-22T00:01:13.505Z,99.99
2017-07-22T00:02:13.550Z,99.99
2017-07-22T00:03:13.573Z,99.99
2017-07-22T00:04:13.582Z,99.99
2017-07-22T00:05:13.648Z,99.99
2017-07-22T00:06:13.680Z,99.99
2017-07-22T00:07:13.713Z,99.99
2017-07-22T00:08:13.756Z,99.99
2017-07-22T00:09:13.777Z,99.99
2017-07-22T00:10:13.808Z,99.99
2017-07-22T00:11:13.856Z,99.99
2017-07-22T00:12:13.879Z,99.99
2017-07-22T00:13:13.927Z,99.99
2017-07-22T00:14:13.964Z,99.99
2017-07-22T00:15:13.977Z,99.99
2017-07-22T00:16:14.031Z,99.99
2017-07-22T00:17:14.071Z,99.99
2017-07-22T00:18:14.101Z,99.99
2017-07-22T00:19:14.135Z,99.99
2017-07-22T00:20:14.165Z,99.99
2017-07-22T00:21:14.212Z,99.99
2017-07-22T00:22:14.223Z,99.99
2017-07-22T00:23:14.280Z,99.99
2017-07-22T00:24:14.310Z,99.99
2017-07-22T00:25:14.347Z,99.99
2017-07-22T00:26:14.376Z,99.99
2017-07-22T00:27:14.416Z,99.99
2017-07-22T00:28:14.432Z,99.99
2017-07-22T00:29:14.476Z,99.99
2017-07-22T00:30:14.522Z,99.99
2017-07-22T00:31:14.559Z,99.99
2017-07-22T00:32:14.587Z,99.99
2017-07-22T00:33:14.627Z,99.99
2017-07-22T00:34:14.648Z,99.99
2017-07-22T00:35:14.679Z,99.99
2017-07-22T00:36:14.731Z,99.99
2017-07-22T00:37:14.769Z,99.99
2017-07-22T00:38:14.787Z,99.99
2017-07-22T00:39:14.833Z,99.99
2017-07-22T00:40:14.976Z,99.99
2017-07-22T00:41:14.909Z,99.99
2017-07-22T00:42:14.943Z,99.99
2017-07-22T00:43:14.982Z,99.99
2017-07-22T00:44:15.015Z,99.99
2017-07-22T00:45:15.150Z,99.99
2017-07-22T00:46:15.086Z,99.99
2017-07-22T00:47:15.120Z,99.99
2017-07-22T00:48:15.155Z,99.99
2017-07-22T00:49:15.187Z,99.99
2017-07-22T00:50:15.222Z,99.99
2017-07-22T00:51:15.258Z,99.99
2017-07-22T00:52:15.273Z,99.99
2017-07-22T00:53:15.326Z,99.99
2017-07-22T00:54:15.367Z,99.99
2017-07-22T00:55:15.388Z,99.99
2017-07-22T00:56:15.436Z,99.99
2017-07-22T00:57:15.473Z,99.99
2017-07-22T00:58:15.505Z,99.99
2017-07-22T00:59:15.526Z,99.99
2017-07-22T01:00:15.574Z,99.99
2017-07-22T01:01:15.599Z,99.99
2017-07-22T01:02:15.646Z,99.99
2017-07-22T01:03:15.683Z,99.99
2017-07-22T01:04:15.682Z,99.99
2017-07-22T01:05:15.744Z,99.99
2017-07-22T01:06:15.785Z,99.99
2017-07-22T01:07:15.816Z,99.99
2017-07-22T01:08:15.862Z,99.99
2017-07-22T01:09:15.893Z,99.99
2017-07-22T01:10:15.925Z,99.99
2017-07-22T01:11:15.961Z,99.99
2017-07-22T01:12:15.996Z,99.99
2017-07-22T01:13:16.030Z,99.99
2017-07-22T01:14:16.066Z,99.99
2017-07-22T01:15:16.097Z,99.99
2017-07-22T01:16:16.138Z,99.99
2017-07-22T01:17:16.148Z,99.99
2017-07-22T01:18:16.196Z,99.99
2017-07-22T01:19:16.251Z,99.99
2017-07-22T01:20:16.274Z,99.99
2017-07-22T01:21:16.300Z,99.99
2017-07-22T01:22:16.340Z,99.99
2017-07-22T01:23:16.384Z,99.99
2017-07-22T01:24:16.396Z,99.99
2017-07-22T01:25:16.447Z,99.99
2017-07-22T01:26:16.488Z,99.99
2017-07-22T01:27:16.542Z,99.99
2017-07-22T01:28:16.551Z,99.99
2017-07-22T01:29:16.589Z,99.99
2017-07-22T01:30:16.618Z,99.99
2017-07-22T01:31:16.962Z,99.99
2017-07-22T01:32:16.694Z,99.99
2017-07-22T01:33:16.725Z,99.99
2017-07-22T01:34:16.762Z,99.99
2017-07-22T01:35:16.781Z,99.99
2017-07-22T01:36:16.909Z,99.99
2017-07-22T01:37:16.863Z,99.99
2017-07-22T01:38:16.905Z,99.99
2017-07-22T01:39:16.937Z,99.99
2017-07-22T01:40:16.976Z,99.99
2017-07-22T01:41:16.995Z,99.99
2017-07-22T01:42:17.039Z,99.99
2017-07-22T01:43:17.079Z,99.99
2017-07-22T01:44:17.100Z,99.99
2017-07-22T01:45:17.138Z,99.99
2017-07-22T01:46:17.164Z,99.99
2017-07-22T01:47:17.197Z,99.99
2017-07-22T01:48:17.248Z,99.99
2017-07-22T01:49:17.282Z,99.99
2017-07-22T01:50:17.323Z,99.99
2017-07-22T01:51:17.352Z,99.99
2017-07-22T01:52:17.374Z,99.99
2017-07-22T01:53:17.431Z,99.99
2017-07-22T01:54:17.442Z,99.99
2017-07-22T01:55:17.494Z,99.99
2017-07-22T01:56:17.532Z,99.99
2017-07-22T01:57:17.552Z,99.99
2017-07-22T01:58:17.606Z,99.99
2017-07-22T01:59:17.629Z,99.99
2017-07-22T02:00:17.665Z,99.99
2017-07-22T02:01:17.685Z,99.99
2017-07-22T02:02:17.724Z,99.99
2017-07-22T02:03:17.763Z,99.99
2017-07-22T02:04:17.781Z,99.99
2017-07-22T02:05:17.845Z,99.99
2017-07-22T02:06:17.872Z,99.99
2017-07-22T02:07:17.906Z,99.99
2017-07-22T02:08:17.951Z,99.99
2017-07-22T02:09:17.980Z,99.99
2017-07-22T02:10:17.989Z,99.99
2017-07-22T02:11:18.271Z,99.99
2017-07-22T02:12:18.328Z,99.99
2017-07-22T02:13:18.121Z,99.99
2017-07-22T02:14:18.149Z,99.99
2017-07-22T02:15:18.191Z,99.99
2017-07-22T02:16:18.220Z,99.99
2017-07-22T02:17:18.244Z,99.99
2017-07-22T02:18:18.297Z,99.99
2017-07-22T02:19:18.322Z,99.99
2017-07-22T02:20:18.361Z,99.99
2017-07-22T02:21:18.397Z,99.99
2017-07-22T02:22:18.418Z,99.99
2017-07-22T02:23:18.460Z,99.99
2017-07-22T02:24:18.496Z,99.99
2017-07-22T02:25:18.531Z,99.99
2017-07-22T02:26:18.590Z,99.99
2017-07-22T02:27:18.698Z,99.99
2017-07-22T02:28:18.619Z,99.99
2017-07-22T02:29:18.669Z,99.99
2017-07-22T02:30:18.701Z,99.99
2017-07-22T02:31:18.739Z,99.99
2017-07-22T02:32:18.875Z,99.99
2017-07-22T02:33:18.801Z,99.99
2017-07-22T02:34:18.845Z,99.99
2017-07-22T02:35:18.872Z,99.99
2017-07-22T02:36:18.899Z,99.99
2017-07-22T02:37:18.952Z,99.99
2017-07-22T02:38:18.985Z,99.99
2017-07-22T02:39:19.026Z,99.99
2017-07-22T02:40:19.051Z,99.99
2017-07-22T02:41:19.091Z,99.99
2017-07-22T02:42:19.124Z,99.99
2017-07-22T02:43:19.157Z,99.99
2017-07-22T02:44:19.198Z,99.99
2017-07-22T02:45:19.226Z,99.99
2017-07-22T02:46:19.262Z,99.99
2017-07-22T02:47:19.275Z,99.99
2017-07-22T02:48:19.334Z,99.99
2017-07-22T02:49:19.346Z,99.99
2017-07-22T02:50:19.399Z,99.99
2017-07-22T02:51:19.428Z,99.99
2017-07-22T02:52:19.477Z,99.99
2017-07-22T02:53:19.483Z,99.99
2017-07-22T02:54:19.533Z,99.99
2017-07-22T02:55:19.573Z,99.99
2017-07-22T02:56:19.605Z,99.99
2017-07-22T02:57:19.642Z,99.99
2017-07-22T02:58:19.676Z,99.99
2017-07-22T02:59:19.703Z,99.99
2017-07-22T03:00:19.727Z,99.99
2017-07-22T03:01:19.780Z,99.99
2017-07-22T03:02:19.811Z,99.99
2017-07-22T03:03:19.850Z,99.99
2017-07-22T03:04:19.883Z,99.99
2017-07-22T03:05:19.914Z,99.99
2017-07-22T03:06:19.952Z,99.99
2017-07-22T03:07:19.983Z,99.99
2017-07-22T03:08:20.003Z,99.99
2017-07-22T03:09:20.053Z,99.99
2017-07-22T03:10:20.092Z,99.99
2017-07-22T03:11:20.117Z,99.99
2017-07-22T03:12:20.165Z,99.99
2017-07-22T03:13:20.190Z,99.99
2017-07-22T03:14:20.208Z,99.99
2017-07-22T03:15:20.257Z,99.99
2017-07-22T03:16:20.294Z,99.99
2017-07-22T03:17:20.323Z,99.99
2017-07-22T03:18:20.357Z,99.99
2017-07-22T03:19:20.380Z,99.99
2017-07-22T03:20:20.420Z,99.99
2017-07-22T03:21:20.468Z,99.99
2017-07-22T03:22:20.507Z,99.99
2017-07-22T03:23:20.518Z,99.99
2017-07-22T03:24:20.580Z,99.99
2017-07-22T03:25:20.605Z,99.99
2017-07-22T03:26:20.643Z,99.99
2017-07-22T03:27:20.659Z,99.99
2017-07-22T03:28:20.714Z,99.99
2017-07-22T03:29:20.754Z,99.99
2017-07-22T03:30:20.779Z,99.99
2017-07-22T03:31:20.816Z,99.99
2017-07-22T03:32:20.859Z,99.99
2017-07-22T03:33:20.885Z,99.99
2017-07-22T03:34:20.916Z,99.99
2017-07-22T03:35:20.949Z,99.99
2017-07-22T03:36:20.990Z,99.99
2017-07-22T03:37:21.005Z,99.99
2017-07-22T03:38:21.059Z,99.99
2017-07-22T03:39:21.088Z,99.99
2017-07-22T03:40:21.103Z,99.99
2017-07-22T03:41:21.162Z,99.99
2017-07-22T03:42:21.169Z,99.99
2017-07-22T03:43:21.210Z,99.99
2017-07-22T03:44:21.254Z,99.99
2017-07-22T03:45:21.297Z,99.99
2017-07-22T03:46:21.304Z,99.99
2017-07-22T03:47:21.371Z,99.99
2017-07-22T03:48:21.397Z,99.99
2017-07-22T03:49:21.415Z,99.99
2017-07-22T03:50:21.473Z,99.99
2017-07-22T03:51:21.508Z,99.99
2017-07-22T03:52:21.539Z,99.99
2017-07-22T03:53:21.569Z,99.99
2017-07-22T03:54:21.587Z,99.99
2017-07-22T03:55:21.639Z,99.99
2017-07-22T03:56:21.670Z,99.99
2017-07-22T03:57:21.716Z,99.99
2017-07-22T03:58:21.741Z,99.99
2017-07-22T03:59:21.778Z,99.99
2017-07-22T04:02:30.603Z,99.99
2017-07-22T04:03:30.659Z,99.99
2017-07-22T04:04:30.686Z,99.99
2017-07-22T04:05:30.722Z,99.99
2017-07-22T04:06:30.761Z,99.99
2017-07-22T04:07:30.789Z,99.99
2017-07-22T04:08:30.822Z,99.99
2017-07-22T04:09:30.858Z,99.99
2017-07-22T04:10:30.891Z,99.99
2017-07-22T04:11:30.923Z,99.99
2017-07-22T04:12:30.975Z,99.99
2017-07-22T04:13:31.001Z,99.99
2017-07-22T04:14:31.022Z,99.99
2017-07-22T04:15:31.070Z,99.99
2017-07-22T04:16:31.089Z,99.99
2017-07-22T04:17:31.136Z,99.99
2017-07-22T04:18:31.168Z,99.99
2017-07-22T04:19:31.207Z,99.99
2017-07-22T04:20:31.246Z,99.99
2017-07-22T04:21:31.277Z,99.99
2017-07-22T04:22:31.324Z,99.99
2017-07-22T04:23:31.319Z,99.99
2017-07-22T04:24:31.389Z,99.99
2017-07-22T04:25:31.420Z,99.99
2017-07-22T04:26:31.461Z,99.99
2017-07-22T04:27:31.490Z,99.99
2017-07-22T04:28:31.525Z,99.99
2017-07-22T04:29:31.559Z,99.99
2017-07-22T04:30:31.592Z,99.99
2017-07-22T04:31:31.612Z,99.99
2017-07-22T04:32:31.661Z,99.99
2017-07-22T04:33:31.738Z,99.99
2017-07-22T04:34:31.727Z,99.99
2017-07-22T04:35:31.774Z,99.99
2017-07-22T04:36:31.804Z,99.99
2017-07-22T04:37:31.839Z,99.99
2017-07-22T04:38:31.876Z,99.99
2017-07-22T04:39:31.915Z,99.99
2017-07-22T04:40:31.948Z,99.99
2017-07-22T04:41:31.979Z,99.99
2017-07-22T04:42:32.022Z,99.99
2017-07-22T04:43:32.052Z,99.99
2017-07-22T04:44:32.092Z,99.99
2017-07-22T04:45:32.125Z,99.99
2017-07-22T04:46:32.161Z,99.99
2017-07-22T04:47:32.198Z,99.99
2017-07-22T04:48:32.222Z,99.99
2017-07-22T04:49:32.272Z,99.99
2017-07-22T04:50:32.319Z,99.99
2017-07-22T04:51:32.342Z,99.99
2017-07-22T04:52:32.359Z,99.99
2017-07-22T04:53:32.412Z,99.99
2017-07-22T04:54:32.451Z,99.99
2017-07-22T04:55:32.457Z,99.99
2017-07-22T04:56:32.521Z,99.99
2017-07-22T04:57:32.557Z,99.99
2017-07-22T04:58:32.595Z,99.99
2017-07-22T04:59:32.628Z,99.99
2017-07-22T05:00:32.657Z,99.99
2017-07-22T05:01:32.729Z,99.99
2017-07-22T05:02:32.721Z,99.99
2017-07-22T05:03:32.774Z,99.99
2017-07-22T05:04:32.813Z,99.99
2017-07-22T05:05:32.844Z,99.99
2017-07-22T05:06:32.882Z,99.99
2017-07-22T05:07:32.921Z,99.99
2017-07-22T05:08:32.961Z,99.99
2017-07-22T05:09:32.965Z,99.99
2017-07-22T05:10:33.023Z,99.99
2017-07-22T05:11:33.060Z,99.99
2017-07-22T05:12:33.094Z,99.99
2017-07-22T05:13:33.099Z,99.99
2017-07-22T05:14:33.164Z,99.99
2017-07-22T05:15:33.212Z,99.99
2017-07-22T05:16:33.221Z,99.99
2017-07-22T05:17:33.276Z,99.99
2017-07-22T05:18:33.309Z,99.99
2017-07-22T05:19:33.329Z,99.88
2017-07-22T05:20:33.379Z,99.5
2017-07-22T05:21:33.417Z,99.79
2017-07-22T05:22:33.457Z,99.88
2017-07-22T05:23:33.486Z,99.98
2017-07-22T05:24:33.526Z,99.88
2017-07-22T05:25:33.562Z,99.59
2017-07-22T05:26:33.622Z,99.99
2017-07-22T05:27:33.638Z,99.99
2017-07-22T05:28:33.671Z,99.99
2017-07-22T05:29:33.710Z,99.99
2017-07-22T05:30:33.737Z,99.99
2017-07-22T05:31:33.775Z,99.99
2017-07-22T05:32:33.793Z,99.98
2017-07-22T05:33:33.827Z,99.5
2017-07-22T05:34:33.886Z,99.5
2017-07-22T05:35:33.929Z,99.69
2017-07-22T05:36:33.954Z,99.02
2017-07-22T05:37:33.995Z,98.72
2017-07-22T05:38:34.041Z,98.49
2017-07-22T05:39:34.072Z,98
2017-07-22T05:40:34.112Z,97.42
2017-07-22T05:41:34.141Z,97.33
2017-07-22T05:42:34.179Z,96.89
2017-07-22T05:43:34.213Z,96.03
2017-07-22T05:44:34.255Z,95.74
2017-07-22T05:45:34.252Z,95.4
2017-07-22T05:46:34.324Z,94.92
2017-07-22T05:47:34.329Z,94.34
2017-07-22T05:48:34.397Z,94.1
2017-07-22T05:49:34.425Z,93.04
2017-07-22T05:50:34.473Z,93.71
2017-07-22T05:51:34.483Z,93.04
2017-07-22T05:52:34.579Z,93.42
2017-07-22T05:53:34.579Z,93.71
2017-07-22T05:54:34.591Z,93.8
2017-07-22T05:55:34.644Z,92.65
2017-07-22T05:56:34.692Z,92.94
2017-07-22T05:57:34.731Z,91.83
2017-07-22T05:58:34.768Z,90.67
2017-07-22T05:59:34.784Z,89.55
2017-07-22T06:00:34.836Z,89.26
2017-07-22T06:01:34.874Z,88.97
2017-07-22T06:02:34.901Z,89.17
2017-07-22T06:03:34.953Z,89.26
2017-07-22T06:04:34.984Z,90.13
2017-07-22T06:05:35.028Z,89.65
2017-07-22T06:06:35.062Z,89.94
2017-07-22T06:07:35.091Z,90.13
2017-07-22T06:08:35.136Z,90.28
2017-07-22T06:09:35.152Z,90.77
2017-07-22T06:10:35.197Z,90.67
2017-07-22T06:11:35.253Z,90.67
2017-07-22T06:12:35.276Z,91.35
2017-07-22T06:13:35.325Z,91.49
2017-07-22T06:14:35.369Z,91.49
2017-07-22T06:15:35.396Z,92.36
2017-07-22T06:16:35.436Z,92.94
2017-07-22T06:17:35.471Z,92.99
2017-07-22T06:18:35.513Z,92.7
2017-07-22T06:19:35.548Z,92.7
2017-07-22T06:20:35.578Z,92.41
2017-07-22T06:21:35.595Z,92.89
2017-07-22T06:22:35.636Z,92.6
2017-07-22T06:23:35.685Z,92.8
2017-07-22T06:24:35.732Z,92.89
2017-07-22T06:25:35.863Z,93.57
2017-07-22T06:26:35.809Z,93.28
2017-07-22T06:27:35.838Z,93.08
2017-07-22T06:28:35.886Z,93.76
2017-07-22T06:29:35.915Z,93.85
2017-07-22T06:30:36.054Z,93.85
2017-07-22T06:31:35.972Z,93.47
2017-07-22T06:32:36.023Z,93.95
2017-07-22T06:33:36.061Z,93.95
2017-07-22T06:34:36.071Z,93.85
2017-07-22T06:35:36.140Z,93.85
2017-07-22T06:36:36.182Z,93.76
2017-07-22T06:37:36.209Z,93.76
2017-07-22T06:38:36.250Z,93.95
2017-07-22T06:39:36.281Z,93.95
2017-07-22T06:40:36.332Z,93.85
2017-07-22T06:41:36.355Z,94.34
2017-07-22T06:42:36.375Z,94.15
2017-07-22T06:43:36.420Z,93.95
2017-07-22T06:44:36.471Z,91.97
2017-07-22T06:45:36.486Z,90.37
2017-07-22T06:46:36.540Z,90.37
2017-07-22T06:47:36.581Z,89.45
2017-07-22T06:48:36.614Z,88.87
2017-07-22T06:49:36.677Z,88.59
2017-07-22T06:50:36.685Z,88.43
2017-07-22T06:51:36.723Z,88.05
2017-07-22T06:52:36.764Z,87.23
2017-07-22T06:53:36.779Z,87.03
2017-07-22T06:54:36.839Z,85.62
2017-07-22T06:55:36.878Z,84.89
2017-07-22T06:56:36.891Z,85.08
2017-07-22T06:57:36.952Z,85.08
2017-07-22T06:58:36.971Z,84.21
2017-07-22T06:59:37.026Z,84.11
2017-07-22T07:00:37.055Z,84.11
2017-07-22T07:01:37.093Z,84.69
2017-07-22T07:02:37.140Z,85.24
2017-07-22T07:03:37.185Z,85.42
2017-07-22T07:04:37.217Z,86.2
2017-07-22T07:05:37.253Z,86.55
2017-07-22T07:06:37.279Z,86.35
2017-07-22T07:07:37.326Z,86.01
2017-07-22T07:08:37.366Z,85.62
2017-07-22T07:09:37.411Z,85.82
2017-07-22T07:10:37.446Z,85.82
2017-07-22T07:11:37.483Z,84.84
2017-07-22T07:12:37.515Z,82.76
2017-07-22T07:13:37.557Z,81.45
2017-07-22T07:14:37.575Z,81.58
2017-07-22T07:15:37.610Z,80.55
2017-07-22T07:16:37.674Z,80.9
2017-07-22T07:17:37.705Z,81.68
2017-07-22T07:18:37.745Z,81.2
2017-07-22T07:19:37.781Z,80.32
2017-07-22T07:20:37.825Z,80.85
2017-07-22T07:21:37.861Z,81.04
2017-07-22T07:22:37.885Z,81.58
2017-07-22T07:23:37.941Z,81.58
2017-07-22T07:24:37.983Z,82.51
2017-07-22T07:25:38.017Z,83.48
2017-07-22T07:26:38.062Z,84.11
2017-07-22T07:27:38.085Z,84.84
2017-07-22T07:28:38.113Z,84.84
2017-07-22T07:29:38.179Z,84.84
2017-07-22T07:30:38.212Z,85.77
2017-07-22T07:31:38.242Z,85.97
2017-07-22T07:32:38.290Z,85.58
2017-07-22T07:33:38.325Z,85.04
2017-07-22T07:34:38.364Z,84.84
2017-07-22T07:35:38.388Z,84.01
2017-07-22T07:36:38.434Z,84.11
2017-07-22T07:37:38.482Z,83.25
2017-07-22T07:38:38.509Z,82.8
2017-07-22T07:39:38.536Z,82.51
2017-07-22T07:40:38.590Z,82.8
2017-07-22T07:41:38.612Z,82.03
2017-07-22T07:42:38.665Z,81.29
2017-07-22T07:43:38.692Z,81
2017-07-22T07:44:38.743Z,80.52
2017-07-22T07:45:38.783Z,80.22
2017-07-22T07:46:38.824Z,79.68
2017-07-22T07:47:38.834Z,77.29
2017-07-22T07:48:38.891Z,75.24
2017-07-22T07:49:38.943Z,74.69
2017-07-22T07:50:38.980Z,74.63
2017-07-22T07:51:39.021Z,75.02
2017-07-22T07:52:39.053Z,75.12
2017-07-22T07:53:39.103Z,72.72
2017-07-22T07:54:39.114Z,71.23
2017-07-22T07:55:39.171Z,67.83
2017-07-22T07:56:39.217Z,64.16
2017-07-22T07:57:39.248Z,62.76
2017-07-22T07:58:39.292Z,62.66
2017-07-22T07:59:39.328Z,61.25
2017-07-22T08:00:39.364Z,60.4
2017-07-22T08:01:39.442Z,62.03
2017-07-22T08:02:39.454Z,63.31
2017-07-22T08:03:39.475Z,64.26
2017-07-22T08:04:39.534Z,64.61
2017-07-22T08:05:39.577Z,66.14
2017-07-22T08:06:39.618Z,67.64
2017-07-22T08:07:39.656Z,69.23
2017-07-22T08:08:39.694Z,69.78
2017-07-22T08:09:39.738Z,71.3
2017-07-22T08:10:39.778Z,72.24
2017-07-22T08:11:39.820Z,73.46
2017-07-22T08:12:39.857Z,74.05
2017-07-22T08:13:39.896Z,74.5
2017-07-22T08:14:39.937Z,74.98
2017-07-22T08:15:39.985Z,75.34
2017-07-22T08:16:40.021Z,75.62
2017-07-22T08:17:40.058Z,76.5
2017-07-22T08:18:40.079Z,76.56
2017-07-22T08:19:40.148Z,76.46
2017-07-22T08:20:40.179Z,77.14
2017-07-22T08:21:40.214Z,76.85
2017-07-22T08:22:40.256Z,77.14
2017-07-22T08:23:40.289Z,76.46
2017-07-22T08:24:40.337Z,76.56
2017-07-22T08:25:40.375Z,76.37
2017-07-22T08:26:40.416Z,77.24
2017-07-22T08:27:40.671Z,77.34
2017-07-22T08:28:40.796Z,76.85
2017-07-22T08:29:40.547Z,76.65
2017-07-22T08:30:40.731Z,76.27
2017-07-22T08:31:40.598Z,75.34
2017-07-22T08:32:40.650Z,74.79
2017-07-22T08:33:40.695Z,74.3
2017-07-22T08:34:40.740Z,73.66
2017-07-22T08:35:40.776Z,73.46
2017-07-22T08:36:40.804Z,74.4
2017-07-22T08:37:40.855Z,74.88
2017-07-22T08:38:40.882Z,74.95
2017-07-22T08:39:40.929Z,75.14
2017-07-22T08:40:40.971Z,75.34
2017-07-22T08:41:41.006Z,75.68
2017-07-22T08:42:41.048Z,75.72
2017-07-22T08:43:41.077Z,75.88
2017-07-22T08:44:41.125Z,76.27
2017-07-22T08:45:41.171Z,75.49
2017-07-22T08:46:41.187Z,76.07
2017-07-22T08:47:41.251Z,76.37
2017-07-22T08:48:41.295Z,76.65
2017-07-22T08:49:41.326Z,76.37
2017-07-22T08:50:41.364Z,76.07
2017-07-22T08:51:41.387Z,76.65
2017-07-22T08:52:41.422Z,76.56
2017-07-22T08:53:41.486Z,76.85
2017-07-22T08:54:41.521Z,77.29
2017-07-22T08:55:41.558Z,77.29
2017-07-22T08:56:41.602Z,77.59
2017-07-22T08:57:41.631Z,77.45
2017-07-22T08:58:41.686Z,78.07
2017-07-22T08:59:41.698Z,78.23
2017-07-22T09:00:41.747Z,78.03
2017-07-22T09:01:41.812Z,78.27
2017-07-22T09:02:41.838Z,78.66
2017-07-22T09:03:41.873Z,77.94
2017-07-22T09:04:41.912Z,78.27
2017-07-22T09:05:41.951Z,78.27
2017-07-22T09:06:41.998Z,78.66
2017-07-22T09:07:42.035Z,77.88
2017-07-22T09:08:42.073Z,78.17
2017-07-22T09:09:42.110Z,77.98
2017-07-22T09:10:42.148Z,77.59
2017-07-22T09:11:42.180Z,77.69
2017-07-22T09:12:42.209Z,76.46
2017-07-22T09:13:42.276Z,76.31
2017-07-22T09:14:42.301Z,76.4
2017-07-22T09:15:42.340Z,75.98
2017-07-22T09:16:42.368Z,75.62
2017-07-22T09:17:42.414Z,76.79
2017-07-22T09:18:42.459Z,76.46
2017-07-22T09:19:42.500Z,76.46
2017-07-22T09:20:42.539Z,76.65
2017-07-22T09:21:42.578Z,76.46
2017-07-22T09:22:42.596Z,76.85
2017-07-22T09:23:42.654Z,76.46
2017-07-22T09:24:42.695Z,76.75
2017-07-22T09:25:42.731Z,77.01
2017-07-22T09:26:42.774Z,77.11
2017-07-22T09:27:42.813Z,77.43
2017-07-22T09:28:42.850Z,76.75
2017-07-22T09:29:42.874Z,76.85
2017-07-22T09:30:42.893Z,76.72
2017-07-22T09:31:42.968Z,76.72
2017-07-22T09:32:43.006Z,77.59
2017-07-22T09:33:43.044Z,77.69
2017-07-22T09:34:43.082Z,77.98
2017-07-22T09:35:43.106Z,77.59
2017-07-22T09:36:43.181Z,77.98
2017-07-22T09:37:43.204Z,77.69
2017-07-22T09:38:43.229Z,77.01
2017-07-22T09:39:43.282Z,76.65
2017-07-22T09:40:43.305Z,76.27
2017-07-22T09:41:43.357Z,75.82
2017-07-22T09:42:43.408Z,76.31
2017-07-22T09:43:43.435Z,75.57
2017-07-22T09:44:43.500Z,74.79
2017-07-22T09:45:43.510Z,73.66
2017-07-22T09:46:43.531Z,74.15
2017-07-22T09:47:43.596Z,73.66
2017-07-22T09:48:43.636Z,73.85
2017-07-22T09:49:43.656Z,73.46
2017-07-22T09:50:43.711Z,73.66
2017-07-22T09:51:43.759Z,73.66
2017-07-22T09:52:43.786Z,73.56
2017-07-22T09:53:43.840Z,73.37
2017-07-22T09:54:43.871Z,73.6
2017-07-22T09:55:43.910Z,73.02
2017-07-22T09:56:43.955Z,72.63
2017-07-22T09:57:43.984Z,72.17
2017-07-22T09:58:44.028Z,72.37
2017-07-22T09:59:44.069Z,72.17
2017-07-22T10:00:44.107Z,71.5
2017-07-22T10:01:44.149Z,70.85
2017-07-22T10:02:44.196Z,70.95
2017-07-22T10:03:44.211Z,70.4
2017-07-22T10:04:44.263Z,70.68
2017-07-22T10:05:44.311Z,69.81
2017-07-22T10:06:44.354Z,69.81
2017-07-22T10:07:44.400Z,69.23
2017-07-22T10:08:44.421Z,69.07
2017-07-22T10:09:44.674Z,68.87
2017-07-22T10:10:44.500Z,68.93
2017-07-22T10:11:44.542Z,69.07
2017-07-22T10:12:44.581Z,69.71
2017-07-22T10:13:44.604Z,69.42
2017-07-22T10:14:44.651Z,68.97
2017-07-22T10:15:44.704Z,68.87
2017-07-22T10:16:44.745Z,67.74
2017-07-22T10:17:44.781Z,68.03
2017-07-22T10:18:44.820Z,67.67
2017-07-22T10:19:44.862Z,66.99
2017-07-22T10:20:44.909Z,66.5
2017-07-22T10:21:44.946Z,66.21
2017-07-22T10:22:44.985Z,65.56
2017-07-22T10:23:45.021Z,64.71
2017-07-22T10:24:45.065Z,61.8
2017-07-22T10:25:45.109Z,58.93
2017-07-22T10:26:45.142Z,56.98
2017-07-22T10:27:45.190Z,54.52
2017-07-22T10:28:45.223Z,53.05
2017-07-22T10:29:45.274Z,51.52
2017-07-22T10:30:45.313Z,50.49
2017-07-22T10:31:45.327Z,50.98
2017-07-22T10:32:45.397Z,50.78
2017-07-22T10:33:45.433Z,51.67
2017-07-22T10:34:45.481Z,50.78
2017-07-22T10:35:45.528Z,50.16
2017-07-22T10:36:45.565Z,49.01
2017-07-22T10:37:45.607Z,49.43
2017-07-22T10:38:45.646Z,50.12
2017-07-22T10:39:45.693Z,50.12
2017-07-22T10:40:45.715Z,51.74
2017-07-22T10:41:45.791Z,53.14
2017-07-22T10:42:45.822Z,54.17
2017-07-22T10:43:45.864Z,55.1
2017-07-22T10:44:45.913Z,55.18
2017-07-22T10:45:45.950Z,56.52
2017-07-22T10:46:45.989Z,56.88
2017-07-22T10:47:46.029Z,57.45
2017-07-22T10:48:46.055Z,57.62
2017-07-22T10:49:46.125Z,57.91
2017-07-22T10:50:46.155Z,58.64
2017-07-22T10:51:46.198Z,59.66
2017-07-22T10:52:46.235Z,61.45
2017-07-22T10:53:46.285Z,62.27
2017-07-22T10:54:46.326Z,62.95
2017-07-22T10:55:46.373Z,64.12
2017-07-22T10:56:46.406Z,64.09
2017-07-22T10:57:46.449Z,64.65
2017-07-22T10:58:46.509Z,64.94
2017-07-22T10:59:46.512Z,65.14
2017-07-22T11:00:46.567Z,64.84
2017-07-22T11:01:46.612Z,65.63
2017-07-22T11:02:46.649Z,65.43
2017-07-22T11:03:46.694Z,65.72
2017-07-22T11:04:46.730Z,65.82
2017-07-22T11:05:46.963Z,66.27
2017-07-22T11:06:46.821Z,66.27
2017-07-22T11:07:47.035Z,65.88
2017-07-22T11:08:46.898Z,66.66
2017-07-22T11:09:46.915Z,67.22
2017-07-22T11:10:46.977Z,67.02
2017-07-22T11:11:47.022Z,67.12
2017-07-22T11:12:47.041Z,67.12
2017-07-22T11:13:47.096Z,67.22
2017-07-22T11:14:47.132Z,66.93
2017-07-22T11:15:47.185Z,66.76
2017-07-22T11:16:47.220Z,66.24
2017-07-22T11:17:47.266Z,66.96
2017-07-22T11:18:47.328Z,67.41
2017-07-22T11:19:47.323Z,67.8
2017-07-22T11:20:47.363Z,68.29
2017-07-22T11:21:47.424Z,67.8
2017-07-22T11:22:47.468Z,67.5
2017-07-22T11:23:47.505Z,68.09
2017-07-22T11:24:47.524Z,67.7
2017-07-22T11:25:47.581Z,67.6
2017-07-22T11:26:47.628Z,68.19
2017-07-22T11:27:47.646Z,67.8
2017-07-22T11:28:47.705Z,67.12
2017-07-22T11:29:47.738Z,66.93
2017-07-22T11:30:47.782Z,67.32
2017-07-22T11:31:47.830Z,67.35
2017-07-22T11:32:47.867Z,67.41
2017-07-22T11:33:47.907Z,67.6
2017-07-22T11:34:47.952Z,67.99
2017-07-22T11:35:47.990Z,68.48
2017-07-22T11:36:48.035Z,68.74
2017-07-22T11:37:48.073Z,68.93
2017-07-22T11:38:48.115Z,69.23
2017-07-22T11:39:48.133Z,69.23
2017-07-22T11:40:48.172Z,69.1
2017-07-22T11:41:48.229Z,69.68
2017-07-22T11:42:48.269Z,69.68
2017-07-22T11:43:48.304Z,69.58
2017-07-22T11:44:48.352Z,69.58
2017-07-22T11:45:48.392Z,69.68
2017-07-22T11:46:48.425Z,69.78
2017-07-22T11:47:48.473Z,69.68
2017-07-22T11:48:48.513Z,70.26
2017-07-22T11:49:48.543Z,70.32
2017-07-22T11:50:48.590Z,70.52
2017-07-22T11:51:48.626Z,71.4
2017-07-22T11:52:48.680Z,71.78
2017-07-22T11:53:48.703Z,71.26
2017-07-22T11:54:48.748Z,72.14
2017-07-22T11:55:48.781Z,72.63
2017-07-22T11:56:48.824Z,73.18
2017-07-22T11:57:48.853Z,73.46
2017-07-22T11:58:48.900Z,73.46
2017-07-22T11:59:48.950Z,74.01
2017-07-22T12:00:48.972Z,74.4
2017-07-22T12:01:49.028Z,74.79
2017-07-22T12:02:49.062Z,74.98
2017-07-22T12:03:49.100Z,75.08
2017-07-22T12:04:49.150Z,74.88
2017-07-22T12:05:49.176Z,75.47
2017-07-22T12:06:49.219Z,75.37
2017-07-22T12:07:49.265Z,75.18
2017-07-22T12:08:49.297Z,75.47
2017-07-22T12:09:49.340Z,75.67
2017-07-22T12:10:49.368Z,76.34
2017-07-22T12:11:49.425Z,76.6
2017-07-22T12:12:49.467Z,76.31
2017-07-22T12:13:49.506Z,76.21
2017-07-22T12:14:49.551Z,76.11
2017-07-22T12:15:49.566Z,76.6
2017-07-22T12:16:49.614Z,76.89
2017-07-22T12:17:49.643Z,77.18
2017-07-22T12:18:49.703Z,76.98
2017-07-22T12:19:49.749Z,76.89
2017-07-22T12:20:49.768Z,77.47
2017-07-22T12:21:49.815Z,77.76
2017-07-22T12:22:49.851Z,79.12
2017-07-22T12:23:49.870Z,79.61
2017-07-22T12:24:49.936Z,82.52
2017-07-22T12:25:49.969Z,83.84
2017-07-22T12:26:50.001Z,86.55
2017-07-22T12:27:50.062Z,89.17
2017-07-22T12:28:50.089Z,91.46
2017-07-22T12:29:50.130Z,94.32
2017-07-22T12:30:50.166Z,96.98
2017-07-22T12:31:50.213Z,98.2
2017-07-22T12:32:50.250Z,97.86
2017-07-22T12:33:50.274Z,99.41
2017-07-22T12:34:50.322Z,99.46
2017-07-22T12:35:50.364Z,99.55
2017-07-22T12:36:50.399Z,99.99
2017-07-22T12:37:50.442Z,99.99
2017-07-22T12:38:50.455Z,99.99
2017-07-22T12:39:50.519Z,99.99
2017-07-22T12:40:50.551Z,99.99
2017-07-22T12:41:50.605Z,99.99
2017-07-22T12:42:50.634Z,99.99
2017-07-22T12:43:50.667Z,99.99
2017-07-22T12:44:50.713Z,99.99
2017-07-22T12:45:50.747Z,99.99
2017-07-22T12:46:50.791Z,99.99
2017-07-22T12:47:50.820Z,99.99
2017-07-22T12:48:50.850Z,99.99
2017-07-22T12:49:50.903Z,99.99
2017-07-22T12:50:50.937Z,99.99
2017-07-22T12:51:50.969Z,99.99
2017-07-22T12:52:51.016Z,99.99
2017-07-22T12:53:51.052Z,99.99
2017-07-22T12:54:51.082Z,99.99
2017-07-22T12:55:51.132Z,99.99
2017-07-22T12:56:51.168Z,99.99